sensor_id;sensor_type;location;lat;lon;timestamp;temperature;humidity
17066;DHT22;23120;52.336;21.182;2022-09-12T00:01:07;11.30;90.70
17066;DHT22;23120;52.336;21.182;2022-09-12T00:03:34;11.30;90.70
17066;DHT22;23120;52.336;21.182;2022-09-12T00:06:07;11.30;90.70
17066;DHT22;23120;52.336;21.182;2022-09-12T00:08:34;11.30;90.70
17066;DHT22;23120;52.336;21.182;2022-09-12T00:11:04;11.30;90.70
17066;DHT22;23120;52.336;21.182;2022-09-12T00:13:31;11.30;91.10
17066;DHT22;23120;52.336;21.182;2022-09-12T00:15:58;11.30;90.70
17066;DHT22;23120;52.336;21.182;2022-09-12T00:18:25;11.30;90.70
17066;DHT22;23120;52.336;21.182;2022-09-12T00:20:51;11.30;90.80
17066;DHT22;23120;52.336;21.182;2022-09-12T00:23:20;11.30;90.70
17066;DHT22;23120;52.336;21.182;2022-09-12T00:25:48;11.30;90.80
17066;DHT22;23120;52.336;21.182;2022-09-12T00:28:16;11.20;90.70
17066;DHT22;23120;52.336;21.182;2022-09-12T00:30:45;11.20;90.70
17066;DHT22;23120;52.336;21.182;2022-09-12T00:33:13;11.20;90.80
17066;DHT22;23120;52.336;21.182;2022-09-12T00:35:41;11.30;90.80
17066;DHT22;23120;52.336;21.182;2022-09-12T00:38:08;11.20;90.80
17066;DHT22;23120;52.336;21.182;2022-09-12T00:40:37;11.20;90.70
17066;DHT22;23120;52.336;21.182;2022-09-12T00:43:03;11.20;90.70
17066;DHT22;23120;52.336;21.182;2022-09-12T00:45:31;11.20;90.70
17066;DHT22;23120;52.336;21.182;2022-09-12T00:48:00;11.20;90.70
17066;DHT22;23120;52.336;21.182;2022-09-12T00:50:28;11.20;90.70
17066;DHT22;23120;52.336;21.182;2022-09-12T00:52:58;11.20;90.70
17066;DHT22;23120;52.336;21.182;2022-09-12T00:55:30;11.20;90.80
17066;DHT22;23120;52.336;21.182;2022-09-12T00:58:01;11.20;90.70
17066;DHT22;23120;52.336;21.182;2022-09-12T01:00:29;11.20;90.70
17066;DHT22;23120;52.336;21.182;2022-09-12T01:02:58;11.20;90.70
17066;DHT22;23120;52.336;21.182;2022-09-12T01:05:27;11.20;90.70
17066;DHT22;23120;52.336;21.182;2022-09-12T01:07:56;11.20;90.70
17066;DHT22;23120;52.336;21.182;2022-09-12T01:10:23;11.20;91.10
17066;DHT22;23120;52.336;21.182;2022-09-12T01:12:50;11.20;90.70
17066;DHT22;23120;52.336;21.182;2022-09-12T01:15:18;11.20;90.70
17066;DHT22;23120;52.336;21.182;2022-09-12T01:17:58;11.20;90.70
17066;DHT22;23120;52.336;21.182;2022-09-12T01:20:53;11.20;90.70
17066;DHT22;23120;52.336;21.182;2022-09-12T01:24:00;11.20;90.70
17066;DHT22;23120;52.336;21.182;2022-09-12T01:27:04;11.20;90.70
17066;DHT22;23120;52.336;21.182;2022-09-12T01:35:45;11.20;90.80
17066;DHT22;23120;52.336;21.182;2022-09-12T01:38:23;11.10;90.70
17066;DHT22;23120;52.336;21.182;2022-09-12T01:40:58;11.10;90.80
17066;DHT22;23120;52.336;21.182;2022-09-12T01:43:32;11.10;90.90
17066;DHT22;23120;52.336;21.182;2022-09-12T01:46:03;11.10;90.80
17066;DHT22;23120;52.336;21.182;2022-09-12T01:48:35;11.10;90.90
17066;DHT22;23120;52.336;21.182;2022-09-12T01:51:08;11.10;90.90
17066;DHT22;23120;52.336;21.182;2022-09-12T01:53:39;11.10;91.00
17066;DHT22;23120;52.336;21.182;2022-09-12T01:56:11;11.10;91.10
17066;DHT22;23120;52.336;21.182;2022-09-12T01:58:42;11.10;91.00
17066;DHT22;23120;52.336;21.182;2022-09-12T02:01:14;11.10;91.00
17066;DHT22;23120;52.336;21.182;2022-09-12T02:03:47;11.10;90.90
17066;DHT22;23120;52.336;21.182;2022-09-12T02:06:18;11.10;91.20
17066;DHT22;23120;52.336;21.182;2022-09-12T02:08:48;11.00;90.90
17066;DHT22;23120;52.336;21.182;2022-09-12T02:11:17;11.10;91.00
17066;DHT22;23120;52.336;21.182;2022-09-12T02:13:51;11.00;91.10
17066;DHT22;23120;52.336;21.182;2022-09-12T02:16:22;11.00;91.00
17066;DHT22;23120;52.336;21.182;2022-09-12T02:18:55;11.00;90.90
17066;DHT22;23120;52.336;21.182;2022-09-12T02:21:25;11.00;90.90
17066;DHT22;23120;52.336;21.182;2022-09-12T02:23:56;11.00;90.80
17066;DHT22;23120;52.336;21.182;2022-09-12T02:26:28;11.00;91.20
17066;DHT22;23120;52.336;21.182;2022-09-12T02:28:56;11.00;90.90
17066;DHT22;23120;52.336;21.182;2022-09-12T02:31:27;11.00;91.00
17066;DHT22;23120;52.336;21.182;2022-09-12T02:34:08;11.00;90.90
17066;DHT22;23120;52.336;21.182;2022-09-12T02:36:40;11.00;90.90
17066;DHT22;23120;52.336;21.182;2022-09-12T02:39:09;11.00;90.90
17066;DHT22;23120;52.336;21.182;2022-09-12T02:41:36;11.00;90.90
17066;DHT22;23120;52.336;21.182;2022-09-12T02:44:03;11.00;90.90
17066;DHT22;23120;52.336;21.182;2022-09-12T02:46:33;11.00;90.90
17066;DHT22;23120;52.336;21.182;2022-09-12T02:49:03;11.00;90.90
17066;DHT22;23120;52.336;21.182;2022-09-12T02:51:30;11.00;90.90
17066;DHT22;23120;52.336;21.182;2022-09-12T02:53:58;11.00;91.00
17066;DHT22;23120;52.336;21.182;2022-09-12T02:56:27;10.90;90.90
17066;DHT22;23120;52.336;21.182;2022-09-12T02:58:56;11.00;90.90
17066;DHT22;23120;52.336;21.182;2022-09-12T03:01:31;10.90;90.90
17066;DHT22;23120;52.336;21.182;2022-09-12T03:04:26;10.90;91.00
17066;DHT22;23120;52.336;21.182;2022-09-12T03:07:06;10.90;90.90
17066;DHT22;23120;52.336;21.182;2022-09-12T03:09:38;11.00;91.00
17066;DHT22;23120;52.336;21.182;2022-09-12T03:12:17;10.90;91.10
17066;DHT22;23120;52.336;21.182;2022-09-12T03:15:18;10.90;91.00
17066;DHT22;23120;52.336;21.182;2022-09-12T03:18:00;10.90;91.10
17066;DHT22;23120;52.336;21.182;2022-09-12T03:20:41;10.90;91.10
17066;DHT22;23120;52.336;21.182;2022-09-12T03:23:18;10.90;91.00
17066;DHT22;23120;52.336;21.182;2022-09-12T03:25:48;10.90;91.50
17066;DHT22;23120;52.336;21.182;2022-09-12T03:28:18;10.90;91.20
17066;DHT22;23120;52.336;21.182;2022-09-12T03:30:46;10.90;91.10
17066;DHT22;23120;52.336;21.182;2022-09-12T03:33:14;10.90;91.10
17066;DHT22;23120;52.336;21.182;2022-09-12T03:35:43;10.90;91.10
17066;DHT22;23120;52.336;21.182;2022-09-12T03:38:11;10.90;91.10
17066;DHT22;23120;52.336;21.182;2022-09-12T03:40:38;10.90;91.20
17066;DHT22;23120;52.336;21.182;2022-09-12T03:43:05;10.90;91.20
17066;DHT22;23120;52.336;21.182;2022-09-12T03:45:33;10.90;91.20
17066;DHT22;23120;52.336;21.182;2022-09-12T03:48:00;10.90;91.20
17066;DHT22;23120;52.336;21.182;2022-09-12T03:50:27;10.90;91.20
17066;DHT22;23120;52.336;21.182;2022-09-12T03:52:57;10.90;91.30
17066;DHT22;23120;52.336;21.182;2022-09-12T03:55:25;10.90;91.20
17066;DHT22;23120;52.336;21.182;2022-09-12T03:57:52;10.90;91.20
17066;DHT22;23120;52.336;21.182;2022-09-12T04:00:19;10.90;91.20
17066;DHT22;23120;52.336;21.182;2022-09-12T04:02:46;10.90;91.30
17066;DHT22;23120;52.336;21.182;2022-09-12T04:05:13;10.90;91.20
17066;DHT22;23120;52.336;21.182;2022-09-12T04:07:40;10.90;91.20
17066;DHT22;23120;52.336;21.182;2022-09-12T04:10:09;10.80;91.20
17066;DHT22;23120;52.336;21.182;2022-09-12T04:12:35;10.90;91.20
17066;DHT22;23120;52.336;21.182;2022-09-12T04:15:04;10.90;91.20
17066;DHT22;23120;52.336;21.182;2022-09-12T04:17:33;10.80;91.40
17066;DHT22;23120;52.336;21.182;2022-09-12T04:20:00;10.90;91.30
17066;DHT22;23120;52.336;21.182;2022-09-12T04:22:27;10.90;91.30
17066;DHT22;23120;52.336;21.182;2022-09-12T04:24:56;10.80;91.40
17066;DHT22;23120;52.336;21.182;2022-09-12T04:27:24;10.80;91.30
17066;DHT22;23120;52.336;21.182;2022-09-12T04:29:51;10.80;91.50
17066;DHT22;23120;52.336;21.182;2022-09-12T04:32:19;10.80;91.50
17066;DHT22;23120;52.336;21.182;2022-09-12T04:34:46;10.80;91.50
17066;DHT22;23120;52.336;21.182;2022-09-12T04:37:13;10.80;91.60
17066;DHT22;23120;52.336;21.182;2022-09-12T04:39:41;10.80;91.80
17066;DHT22;23120;52.336;21.182;2022-09-12T04:42:08;10.80;91.70
17066;DHT22;23120;52.336;21.182;2022-09-12T04:44:36;10.80;92.10
17066;DHT22;23120;52.336;21.182;2022-09-12T04:47:03;10.80;91.60
17066;DHT22;23120;52.336;21.182;2022-09-12T04:49:30;10.80;91.70
17066;DHT22;23120;52.336;21.182;2022-09-12T04:51:57;10.80;91.80
17066;DHT22;23120;52.336;21.182;2022-09-12T04:54:24;10.80;91.90
17066;DHT22;23120;52.336;21.182;2022-09-12T04:56:51;10.80;92.00
17066;DHT22;23120;52.336;21.182;2022-09-12T04:59:20;10.80;92.10
17066;DHT22;23120;52.336;21.182;2022-09-12T05:01:48;10.80;92.00
17066;DHT22;23120;52.336;21.182;2022-09-12T05:04:18;10.80;92.00
17066;DHT22;23120;52.336;21.182;2022-09-12T05:06:45;10.80;92.10
17066;DHT22;23120;52.336;21.182;2022-09-12T05:09:13;10.80;92.20
17066;DHT22;23120;52.336;21.182;2022-09-12T05:11:42;10.80;92.20
17066;DHT22;23120;52.336;21.182;2022-09-12T05:14:09;10.80;92.20
17066;DHT22;23120;52.336;21.182;2022-09-12T05:16:36;10.80;92.30
17066;DHT22;23120;52.336;21.182;2022-09-12T05:19:04;10.80;92.40
17066;DHT22;23120;52.336;21.182;2022-09-12T05:21:31;10.80;92.30
17066;DHT22;23120;52.336;21.182;2022-09-12T05:23:58;10.80;92.40
17066;DHT22;23120;52.336;21.182;2022-09-12T05:26:25;10.80;92.40
17066;DHT22;23120;52.336;21.182;2022-09-12T05:28:53;10.80;92.40
17066;DHT22;23120;52.336;21.182;2022-09-12T05:31:22;10.80;92.80
17066;DHT22;23120;52.336;21.182;2022-09-12T05:33:50;10.80;92.80
17066;DHT22;23120;52.336;21.182;2022-09-12T05:36:20;10.80;92.60
17066;DHT22;23120;52.336;21.182;2022-09-12T05:38:48;10.80;92.70
17066;DHT22;23120;52.336;21.182;2022-09-12T05:41:16;10.80;92.90
17066;DHT22;23120;52.336;21.182;2022-09-12T05:43:44;10.80;92.60
17066;DHT22;23120;52.336;21.182;2022-09-12T05:46:13;10.80;92.60
17066;DHT22;23120;52.336;21.182;2022-09-12T05:48:41;10.80;92.60
17066;DHT22;23120;52.336;21.182;2022-09-12T05:51:10;10.90;92.60
17066;DHT22;23120;52.336;21.182;2022-09-12T05:53:40;10.90;92.70
17066;DHT22;23120;52.336;21.182;2022-09-12T05:56:09;10.90;92.70
17066;DHT22;23120;52.336;21.182;2022-09-12T05:58:38;10.90;93.30
17066;DHT22;23120;52.336;21.182;2022-09-12T06:01:06;10.90;93.30
17066;DHT22;23120;52.336;21.182;2022-09-12T06:03:34;10.90;93.00
17066;DHT22;23120;52.336;21.182;2022-09-12T06:06:02;10.90;92.80
17066;DHT22;23120;52.336;21.182;2022-09-12T06:08:30;10.90;92.70
17066;DHT22;23120;52.336;21.182;2022-09-12T06:11:00;10.90;92.70
17066;DHT22;23120;52.336;21.182;2022-09-12T06:13:27;10.90;92.70
17066;DHT22;23120;52.336;21.182;2022-09-12T06:15:54;11.00;92.90
17066;DHT22;23120;52.336;21.182;2022-09-12T06:18:21;11.00;92.90
17066;DHT22;23120;52.336;21.182;2022-09-12T06:20:48;11.00;92.70
17066;DHT22;23120;52.336;21.182;2022-09-12T06:23:14;11.10;92.80
17066;DHT22;23120;52.336;21.182;2022-09-12T06:25:47;11.10;92.90
17066;DHT22;23120;52.336;21.182;2022-09-12T06:28:18;11.10;93.20
17066;DHT22;23120;52.336;21.182;2022-09-12T06:30:45;11.10;93.20
17066;DHT22;23120;52.336;21.182;2022-09-12T06:33:13;11.10;93.20
17066;DHT22;23120;52.336;21.182;2022-09-12T06:35:40;11.10;93.10
17066;DHT22;23120;52.336;21.182;2022-09-12T06:38:07;11.10;93.10
17066;DHT22;23120;52.336;21.182;2022-09-12T06:40:34;11.20;93.10
17066;DHT22;23120;52.336;21.182;2022-09-12T06:43:01;11.20;93.10
17066;DHT22;23120;52.336;21.182;2022-09-12T06:45:33;11.20;93.10
17066;DHT22;23120;52.336;21.182;2022-09-12T06:48:00;11.20;93.20
17066;DHT22;23120;52.336;21.182;2022-09-12T06:50:27;11.30;93.10
17066;DHT22;23120;52.336;21.182;2022-09-12T06:52:54;11.30;93.50
17066;DHT22;23120;52.336;21.182;2022-09-12T06:55:21;11.30;93.30
17066;DHT22;23120;52.336;21.182;2022-09-12T06:57:48;11.30;93.20
17066;DHT22;23120;52.336;21.182;2022-09-12T07:00:17;11.40;93.40
17066;DHT22;23120;52.336;21.182;2022-09-12T07:02:45;11.40;93.30
17066;DHT22;23120;52.336;21.182;2022-09-12T07:05:12;11.40;93.40
17066;DHT22;23120;52.336;21.182;2022-09-12T07:07:39;11.40;93.30
17066;DHT22;23120;52.336;21.182;2022-09-12T07:10:07;11.40;93.20
17066;DHT22;23120;52.336;21.182;2022-09-12T07:12:36;11.50;93.30
17066;DHT22;23120;52.336;21.182;2022-09-12T07:15:03;11.50;93.10
17066;DHT22;23120;52.336;21.182;2022-09-12T07:17:30;11.60;93.40
17066;DHT22;23120;52.336;21.182;2022-09-12T07:19:59;11.60;93.60
17066;DHT22;23120;52.336;21.182;2022-09-12T07:22:25;11.70;93.30
17066;DHT22;23120;52.336;21.182;2022-09-12T07:24:52;11.70;93.40
17066;DHT22;23120;52.336;21.182;2022-09-12T07:27:20;11.70;93.40
17066;DHT22;23120;52.336;21.182;2022-09-12T07:29:47;11.80;93.30
17066;DHT22;23120;52.336;21.182;2022-09-12T07:32:14;11.80;93.40
17066;DHT22;23120;52.336;21.182;2022-09-12T07:34:40;11.90;93.30
17066;DHT22;23120;52.336;21.182;2022-09-12T07:37:09;11.90;93.10
17066;DHT22;23120;52.336;21.182;2022-09-12T07:39:35;11.90;92.90
17066;DHT22;23120;52.336;21.182;2022-09-12T07:42:03;11.90;92.90
17066;DHT22;23120;52.336;21.182;2022-09-12T07:44:31;11.90;92.90
17066;DHT22;23120;52.336;21.182;2022-09-12T07:46:59;11.90;92.90
17066;DHT22;23120;52.336;21.182;2022-09-12T07:49:26;11.90;92.90
17066;DHT22;23120;52.336;21.182;2022-09-12T07:51:55;11.90;92.90
17066;DHT22;23120;52.336;21.182;2022-09-12T07:54:23;12.00;92.90
17066;DHT22;23120;52.336;21.182;2022-09-12T07:56:50;12.00;92.90
17066;DHT22;23120;52.336;21.182;2022-09-12T07:59:17;12.00;92.90
17066;DHT22;23120;52.336;21.182;2022-09-12T08:01:44;12.00;92.90
17066;DHT22;23120;52.336;21.182;2022-09-12T08:04:10;12.10;92.90
17066;DHT22;23120;52.336;21.182;2022-09-12T08:06:37;12.10;93.00
17066;DHT22;23120;52.336;21.182;2022-09-12T08:09:05;12.20;93.00
17066;DHT22;23120;52.336;21.182;2022-09-12T08:11:34;12.20;92.90
17066;DHT22;23120;52.336;21.182;2022-09-12T08:14:00;12.20;93.00
17066;DHT22;23120;52.336;21.182;2022-09-12T08:16:31;12.30;93.00
17066;DHT22;23120;52.336;21.182;2022-09-12T08:18:59;12.30;93.00
17066;DHT22;23120;52.336;21.182;2022-09-12T08:21:27;12.30;92.70
17066;DHT22;23120;52.336;21.182;2022-09-12T08:23:56;12.40;92.60
17066;DHT22;23120;52.336;21.182;2022-09-12T08:26:24;12.40;92.60
17066;DHT22;23120;52.336;21.182;2022-09-12T08:28:52;12.40;92.60
17066;DHT22;23120;52.336;21.182;2022-09-12T08:31:21;12.50;92.50
17066;DHT22;23120;52.336;21.182;2022-09-12T08:33:48;12.50;92.60
17066;DHT22;23120;52.336;21.182;2022-09-12T08:36:17;12.60;92.50
17066;DHT22;23120;52.336;21.182;2022-09-12T08:38:47;12.60;92.50
17066;DHT22;23120;52.336;21.182;2022-09-12T08:41:21;12.60;92.40
17066;DHT22;23120;52.336;21.182;2022-09-12T08:44:28;12.70;92.30
17066;DHT22;23120;52.336;21.182;2022-09-12T08:47:09;12.70;92.30
17066;DHT22;23120;52.336;21.182;2022-09-12T08:49:46;12.80;92.20
17066;DHT22;23120;52.336;21.182;2022-09-12T08:52:19;12.80;92.10
17066;DHT22;23120;52.336;21.182;2022-09-12T08:54:47;12.90;92.30
17066;DHT22;23120;52.336;21.182;2022-09-12T08:57:15;12.90;92.20
17066;DHT22;23120;52.336;21.182;2022-09-12T08:59:45;12.90;92.10
17066;DHT22;23120;52.336;21.182;2022-09-12T09:02:30;13.00;92.10
17066;DHT22;23120;52.336;21.182;2022-09-12T09:05:03;13.00;92.20
17066;DHT22;23120;52.336;21.182;2022-09-12T09:07:55;13.10;92.00
17066;DHT22;23120;52.336;21.182;2022-09-12T09:10:30;13.10;91.90
17066;DHT22;23120;52.336;21.182;2022-09-12T09:13:08;13.10;91.70
17066;DHT22;23120;52.336;21.182;2022-09-12T09:16:08;13.10;91.70
17066;DHT22;23120;52.336;21.182;2022-09-12T09:18:37;13.20;91.70
17066;DHT22;23120;52.336;21.182;2022-09-12T09:21:08;13.20;91.70
17066;DHT22;23120;52.336;21.182;2022-09-12T09:23:39;13.30;91.70
17066;DHT22;23120;52.336;21.182;2022-09-12T09:26:11;13.30;91.60
17066;DHT22;23120;52.336;21.182;2022-09-12T09:28:43;13.30;91.60
17066;DHT22;23120;52.336;21.182;2022-09-12T09:31:13;13.30;91.50
17066;DHT22;23120;52.336;21.182;2022-09-12T09:33:41;13.30;92.00
17066;DHT22;23120;52.336;21.182;2022-09-12T09:36:16;13.40;91.30
17066;DHT22;23120;52.336;21.182;2022-09-12T09:38:48;13.40;91.30
17066;DHT22;23120;52.336;21.182;2022-09-12T09:41:25;13.40;91.30
17066;DHT22;23120;52.336;21.182;2022-09-12T09:43:55;13.50;91.50
17066;DHT22;23120;52.336;21.182;2022-09-12T09:46:24;13.50;91.30
17066;DHT22;23120;52.336;21.182;2022-09-12T09:48:52;13.50;91.30
17066;DHT22;23120;52.336;21.182;2022-09-12T09:51:24;13.50;91.30
17066;DHT22;23120;52.336;21.182;2022-09-12T09:53:53;13.60;91.30
17066;DHT22;23120;52.336;21.182;2022-09-12T09:56:27;13.60;91.10
17066;DHT22;23120;52.336;21.182;2022-09-12T09:58:56;13.60;90.90
17066;DHT22;23120;52.336;21.182;2022-09-12T10:01:25;13.60;91.00
17066;DHT22;23120;52.336;21.182;2022-09-12T10:03:54;13.60;90.90
17066;DHT22;23120;52.336;21.182;2022-09-12T10:06:30;13.60;90.90
17066;DHT22;23120;52.336;21.182;2022-09-12T10:09:16;13.60;90.80
17066;DHT22;23120;52.336;21.182;2022-09-12T10:11:44;13.70;91.00
17066;DHT22;23120;52.336;21.182;2022-09-12T10:14:36;13.70;90.90
17066;DHT22;23120;52.336;21.182;2022-09-12T10:17:25;13.70;90.90
17066;DHT22;23120;52.336;21.182;2022-09-12T10:19:53;13.70;90.90
17066;DHT22;23120;52.336;21.182;2022-09-12T10:22:22;13.70;90.80
17066;DHT22;23120;52.336;21.182;2022-09-12T10:24:50;13.70;90.80
17066;DHT22;23120;52.336;21.182;2022-09-12T10:27:20;13.70;90.60
17066;DHT22;23120;52.336;21.182;2022-09-12T10:29:49;13.70;90.70
17066;DHT22;23120;52.336;21.182;2022-09-12T10:32:24;13.70;90.40
17066;DHT22;23120;52.336;21.182;2022-09-12T10:34:56;13.70;90.20
17066;DHT22;23120;52.336;21.182;2022-09-12T10:37:29;13.70;90.40
17066;DHT22;23120;52.336;21.182;2022-09-12T10:39:58;13.70;90.40
17066;DHT22;23120;52.336;21.182;2022-09-12T10:42:47;13.70;90.30
17066;DHT22;23120;52.336;21.182;2022-09-12T10:45:18;13.70;90.50
17066;DHT22;23120;52.336;21.182;2022-09-12T10:47:47;13.80;90.50
17066;DHT22;23120;52.336;21.182;2022-09-12T10:50:32;13.80;90.50
17066;DHT22;23120;52.336;21.182;2022-09-12T10:53:14;13.80;90.60
17066;DHT22;23120;52.336;21.182;2022-09-12T10:55:55;13.80;90.60
17066;DHT22;23120;52.336;21.182;2022-09-12T10:58:49;13.90;90.70
17066;DHT22;23120;52.336;21.182;2022-09-12T11:01:36;13.90;90.60
17066;DHT22;23120;52.336;21.182;2022-09-12T11:04:25;13.90;90.40
17066;DHT22;23120;52.336;21.182;2022-09-12T11:09:51;14.00;90.40
17066;DHT22;23120;52.336;21.182;2022-09-12T11:12:27;13.90;90.10
17066;DHT22;23120;52.336;21.182;2022-09-12T11:15:07;14.00;90.10
17066;DHT22;23120;52.336;21.182;2022-09-12T11:17:48;14.00;90.10
17066;DHT22;23120;52.336;21.182;2022-09-12T11:20:37;14.10;90.30
17066;DHT22;23120;52.336;21.182;2022-09-12T11:23:44;14.00;90.10
17066;DHT22;23120;52.336;21.182;2022-09-12T11:26:26;14.10;90.30
17066;DHT22;23120;52.336;21.182;2022-09-12T11:29:04;14.10;90.40
17066;DHT22;23120;52.336;21.182;2022-09-12T11:31:50;14.10;90.40
17066;DHT22;23120;52.336;21.182;2022-09-12T11:34:25;14.20;90.40
17066;DHT22;23120;52.336;21.182;2022-09-12T11:37:07;14.20;90.40
17066;DHT22;23120;52.336;21.182;2022-09-12T11:39:38;14.20;90.40
17066;DHT22;23120;52.336;21.182;2022-09-12T11:42:11;14.30;90.30
17066;DHT22;23120;52.336;21.182;2022-09-12T11:44:43;14.30;90.30
17066;DHT22;23120;52.336;21.182;2022-09-12T11:47:12;14.40;90.30
17066;DHT22;23120;52.336;21.182;2022-09-12T11:49:42;14.40;90.20
17066;DHT22;23120;52.336;21.182;2022-09-12T11:52:16;14.40;90.20
17066;DHT22;23120;52.336;21.182;2022-09-12T11:54:48;14.50;90.10
17066;DHT22;23120;52.336;21.182;2022-09-12T11:57:24;14.50;90.10
17066;DHT22;23120;52.336;21.182;2022-09-12T11:59:55;14.50;90.00
17066;DHT22;23120;52.336;21.182;2022-09-12T12:02:25;14.60;90.10
17066;DHT22;23120;52.336;21.182;2022-09-12T12:05:03;14.60;90.00
17066;DHT22;23120;52.336;21.182;2022-09-12T12:07:38;14.60;90.00
17066;DHT22;23120;52.336;21.182;2022-09-12T12:10:25;14.70;90.00
17066;DHT22;23120;52.336;21.182;2022-09-12T12:12:54;14.60;89.70
17066;DHT22;23120;52.336;21.182;2022-09-12T12:15:22;14.60;89.60
17066;DHT22;23120;52.336;21.182;2022-09-12T12:18:03;14.60;89.60
17066;DHT22;23120;52.336;21.182;2022-09-12T12:20:31;14.60;89.50
17066;DHT22;23120;52.336;21.182;2022-09-12T12:22:59;14.60;89.10
17066;DHT22;23120;52.336;21.182;2022-09-12T12:25:49;14.60;88.90
17066;DHT22;23120;52.336;21.182;2022-09-12T12:31:18;14.60;88.90
17066;DHT22;23120;52.336;21.182;2022-09-12T12:34:00;14.50;88.30
17066;DHT22;23120;52.336;21.182;2022-09-12T12:36:39;14.40;88.60
17066;DHT22;23120;52.336;21.182;2022-09-12T12:45:58;14.50;88.40
17066;DHT22;23120;52.336;21.182;2022-09-12T12:48:32;14.50;88.10
17066;DHT22;23120;52.336;21.182;2022-09-12T12:54:26;14.40;88.60
17066;DHT22;23120;52.336;21.182;2022-09-12T12:57:03;14.40;88.20
17066;DHT22;23120;52.336;21.182;2022-09-12T12:59:31;14.40;88.70
17066;DHT22;23120;52.336;21.182;2022-09-12T13:02:00;14.40;88.00
17066;DHT22;23120;52.336;21.182;2022-09-12T13:04:29;14.40;87.80
17066;DHT22;23120;52.336;21.182;2022-09-12T13:06:59;14.40;87.70
17066;DHT22;23120;52.336;21.182;2022-09-12T13:09:32;14.50;87.50
17066;DHT22;23120;52.336;21.182;2022-09-12T13:12:05;14.50;87.50
17066;DHT22;23120;52.336;21.182;2022-09-12T13:14:48;14.50;87.30
17066;DHT22;23120;52.336;21.182;2022-09-12T13:17:22;14.50;87.30
17066;DHT22;23120;52.336;21.182;2022-09-12T13:19:53;14.50;87.40
17066;DHT22;23120;52.336;21.182;2022-09-12T13:22:38;14.50;88.10
17066;DHT22;23120;52.336;21.182;2022-09-12T13:25:18;14.60;88.60
17066;DHT22;23120;52.336;21.182;2022-09-12T13:27:59;14.60;88.90
17066;DHT22;23120;52.336;21.182;2022-09-12T13:30:27;14.60;88.90
17066;DHT22;23120;52.336;21.182;2022-09-12T13:33:01;14.70;89.00
17066;DHT22;23120;52.336;21.182;2022-09-12T13:35:37;14.70;89.00
17066;DHT22;23120;52.336;21.182;2022-09-12T13:38:09;14.70;88.10
17066;DHT22;23120;52.336;21.182;2022-09-12T13:40:52;14.70;89.00
17066;DHT22;23120;52.336;21.182;2022-09-12T13:43:30;14.80;89.10
17066;DHT22;23120;52.336;21.182;2022-09-12T13:46:02;14.80;89.10
17066;DHT22;23120;52.336;21.182;2022-09-12T13:48:31;14.80;89.10
17066;DHT22;23120;52.336;21.182;2022-09-12T13:51:00;14.90;88.30
17066;DHT22;23120;52.336;21.182;2022-09-12T13:53:31;14.90;89.90
17066;DHT22;23120;52.336;21.182;2022-09-12T13:56:01;14.90;88.90
17066;DHT22;23120;52.336;21.182;2022-09-12T13:58:30;14.90;89.00
17066;DHT22;23120;52.336;21.182;2022-09-12T14:01:04;14.90;88.50
17066;DHT22;23120;52.336;21.182;2022-09-12T14:03:38;14.90;87.80
17066;DHT22;23120;52.336;21.182;2022-09-12T14:06:23;15.00;88.10
17066;DHT22;23120;52.336;21.182;2022-09-12T14:08:52;15.00;88.40
17066;DHT22;23120;52.336;21.182;2022-09-12T14:11:26;15.00;88.50
17066;DHT22;23120;52.336;21.182;2022-09-12T14:13:54;15.00;88.30
17066;DHT22;23120;52.336;21.182;2022-09-12T14:16:22;15.00;88.50
17066;DHT22;23120;52.336;21.182;2022-09-12T14:18:55;15.00;88.50
17066;DHT22;23120;52.336;21.182;2022-09-12T14:21:31;15.00;88.50
17066;DHT22;23120;52.336;21.182;2022-09-12T14:24:00;15.00;88.50
17066;DHT22;23120;52.336;21.182;2022-09-12T14:26:29;15.00;88.40
17066;DHT22;23120;52.336;21.182;2022-09-12T14:28:59;15.00;88.30
17066;DHT22;23120;52.336;21.182;2022-09-12T14:31:29;15.00;88.10
17066;DHT22;23120;52.336;21.182;2022-09-12T14:34:10;15.00;88.20
17066;DHT22;23120;52.336;21.182;2022-09-12T14:36:41;15.00;87.20
17066;DHT22;23120;52.336;21.182;2022-09-12T14:39:17;15.00;86.80
17066;DHT22;23120;52.336;21.182;2022-09-12T14:41:44;15.00;87.70
17066;DHT22;23120;52.336;21.182;2022-09-12T14:44:16;15.00;87.70
17066;DHT22;23120;52.336;21.182;2022-09-12T14:46:46;15.00;87.80
17066;DHT22;23120;52.336;21.182;2022-09-12T14:49:17;15.00;87.20
17066;DHT22;23120;52.336;21.182;2022-09-12T14:51:53;14.90;87.00
17066;DHT22;23120;52.336;21.182;2022-09-12T14:54:39;14.90;87.50
17066;DHT22;23120;52.336;21.182;2022-09-12T14:57:34;14.90;86.70
17066;DHT22;23120;52.336;21.182;2022-09-12T15:00:15;14.80;86.10
17066;DHT22;23120;52.336;21.182;2022-09-12T15:02:46;14.80;87.00
17066;DHT22;23120;52.336;21.182;2022-09-12T15:05:23;14.80;87.00
17066;DHT22;23120;52.336;21.182;2022-09-12T15:07:58;14.80;87.20
17066;DHT22;23120;52.336;21.182;2022-09-12T15:10:28;14.80;87.30
17066;DHT22;23120;52.336;21.182;2022-09-12T15:13:10;14.80;87.30
17066;DHT22;23120;52.336;21.182;2022-09-12T15:15:40;14.70;87.40
17066;DHT22;23120;52.336;21.182;2022-09-12T15:18:07;14.70;86.90
17066;DHT22;23120;52.336;21.182;2022-09-12T15:20:37;14.70;88.10
17066;DHT22;23120;52.336;21.182;2022-09-12T15:23:05;14.70;87.50
17066;DHT22;23120;52.336;21.182;2022-09-12T15:25:33;14.70;87.10
17066;DHT22;23120;52.336;21.182;2022-09-12T15:28:00;14.70;87.50
17066;DHT22;23120;52.336;21.182;2022-09-12T15:30:31;14.70;87.70
17066;DHT22;23120;52.336;21.182;2022-09-12T15:32:57;14.70;87.90
17066;DHT22;23120;52.336;21.182;2022-09-12T15:35:25;14.60;87.60
17066;DHT22;23120;52.336;21.182;2022-09-12T15:37:55;14.60;86.80
17066;DHT22;23120;52.336;21.182;2022-09-12T15:40:22;14.60;87.40
17066;DHT22;23120;52.336;21.182;2022-09-12T15:42:51;14.60;87.50
17066;DHT22;23120;52.336;21.182;2022-09-12T15:45:22;14.60;87.70
17066;DHT22;23120;52.336;21.182;2022-09-12T15:47:50;14.60;86.80
17066;DHT22;23120;52.336;21.182;2022-09-12T15:50:17;14.50;86.70
17066;DHT22;23120;52.336;21.182;2022-09-12T15:52:45;14.50;87.50
17066;DHT22;23120;52.336;21.182;2022-09-12T15:55:16;14.50;87.50
17066;DHT22;23120;52.336;21.182;2022-09-12T15:57:42;14.50;87.90
17066;DHT22;23120;52.336;21.182;2022-09-12T16:00:11;14.50;88.10
17066;DHT22;23120;52.336;21.182;2022-09-12T16:02:38;14.50;88.30
17066;DHT22;23120;52.336;21.182;2022-09-12T16:05:10;14.40;89.40